Air Navigation Services of Czech Republic  
Last data update:  25.07.2017 12:27:10 UTC Česká verze
   METEO Page displayed:  25.07.2017 12:30:52 UTC  
help
METAR EDDB 251220Z 35006KT 320V030 9999 -RA BKN018 BKN070 17/14 Q1001 NOSIG=
METAR EDDC 251220Z 27005KT 210V330 9999 SCT027 BKN040 18/12 Q1002 NOSIG=
METAR EDDE 251220Z 27013KT 8000 RADZ BKN006 OVC023 14/13 Q1003 TEMPO NSW=
METAR EDDF 251220Z 26011G25KT 180V290 9999 -RA FEW009 BKN018 OVC065 16/14 Q1008 TEMPO RA=
METAR EDDM 251220Z 28013KT 250V310 9999 -SHRA SCT030CB SCT050 BKN100 16/11 Q1009 TEMPO 30020G35KT 4000 TSRA=
METAR EDDN 251220Z 26014KT 9999 -RA BKN012 BKN030 14/13 Q1007 TEMPO RA=
METAR EDDP 251220Z 33010KT 9999 -RA BKN010 BKN050 16/15 Q1002 TEMPO BKN008=
METAR EDDT 251220Z 35005KT 310V040 9999 BKN023 BKN060 17/12 Q1001 NOSIG=
METAR EDQM 251220Z 22010KT 190V250 5000 RA FEW012 BKN025 BKN033 12/10 Q1005 RERA=
METAR EPBY 251200Z 10009KT 9999 -RA NSC 22/16 Q1000 =
METAR EPGD 251200Z 04013KT 9999 BKN006 18/16 Q1003 =
METAR EPKK 251200Z 24014KT 9999 SCT014 BKN026 17/13 Q1003 =
METAR EPKT 251200Z 27013KT 9999 SCT020 BKN023 18/12 Q1002 =
METAR EPLL 251200Z 25009KT 9999 -RA SCT005 BKN007 OVC008 16/16 Q1000 =
METAR EPPO 251200Z 21006KT 4000 -RA BR BKN004 17/16 Q1000 =
METAR EPRZ 251200Z 26010KT 9999 SCT013 BKN025 20/17 Q1001 =
METAR EPWA 251200Z 14003KT 100V200 9999 SCT015 23/19 Q0999 NOSIG=
METAR EPWR 251200Z 26012KT 9999 BKN036 20/12 Q1001 =
METAR LHBP 251200Z 29021KT 9999 SCT046 22/10 Q1004 NOSIG=
METAR LHSM 251145Z 30007KT CAVOK 23/11 Q1006 NOSIG=
METAR LKCV 251200Z 26013KT 9999 FEW035 BKN060 BKN070 19/11 Q1004=
METAR LKKB 251200Z 24013KT 9999 SCT035 BKN046 17/10 Q1004 NOSIG =
METAR LKKU NIL
METAR LKKV 251200Z 24011G23KT 190V290 9999 SCT020 SCT038 14/09 Q1004 RMK REG QNH 1000=
METAR LKLN 251200Z AUTO 24014G24KT 200V310 9999 FEW026 BKN034 BKN076 17/10 Q1005=
METAR LKMT 251200Z 25013KT 9999 BKN037 BKN046 19/11 Q1004 NOSIG RMK REG QNH 1000=
METAR LKNA 251200Z 28017KT 9999 SCT040 BKN050 18/06 Q1005 NOSIG=
METAR LKPD 251200Z 26014KT 9999 SCT030 OVC050 19/10 Q1004 NOSIG =
METAR LKPR 251200Z 25016KT 9999 SCT036 18/09 Q1004 NOSIG RMK REG QNH 1000=
METAR LKTB 251200Z 28012KT 9999 FEW044 20/10 Q1005 NOSIG RMK REG QNH 1000=
METAR LKVO 251200Z 25011KT 9999 FEW034 BKN050 18/11 Q1004=
METAR LOWI 251220Z 25020KT 9999 FEW045 SCT060 BKN120 19/06 Q1009 NOSIG=
METAR LOWL 251220Z 28013KT 9999 SHRA BKN034 BKN090 16/11 Q1008 TEMPO NSW=
METAR LOWS 251220Z 31010KT 270V330 9999 -SHRA FEW020 SCT050 BKN090 16/12 Q1009 TEMPO SHRA=
METAR LOWW 251220Z 28019G29KT 9999 FEW044 SCT080 BKN300 21/09 Q1006 NOSIG=
METAR LZIB 251200Z 28018KT 250V310 CAVOK 22/09 Q1005 NOSIG=
METAR LZKZ 251200Z VRB01KT 9999 SCT010 BKN028 20/16 Q1002 NOSIG=
METAR LZPP 251200Z 29014KT 250V310 CAVOK 21/09 Q1005=
METAR LZSL 251200Z 31009KT 270V350 9999 SCT033 BKN067 19/12 Q1004=
METAR LZTT 251200Z 26014KT 5000 -RA FEW010 OVC018 13/12 Q1003 NOSIG=
METAR LZZI 251200Z 23006KT 210V270 9999 FEW023 BKN040 18/13 Q1004=